createdAt,value
2022-12-11T00:01:41.082Z,29.35
2022-12-11T00:04:07.798Z,28.65
2022-12-11T00:06:38.432Z,29.10
2022-12-11T00:09:05.103Z,29.60
2022-12-11T00:11:35.199Z,29.80
2022-12-11T00:14:02.902Z,29.38
2022-12-11T00:16:29.594Z,29.48
2022-12-11T00:18:56.111Z,31.42
2022-12-11T00:21:22.712Z,30.00
2022-12-11T00:23:49.520Z,30.15
2022-12-11T00:26:16.563Z,31.05
2022-12-11T00:28:44.485Z,29.92
2022-12-11T00:31:17.557Z,30.90
2022-12-11T00:33:45.253Z,30.13
2022-12-11T00:36:17.128Z,30.17
2022-12-11T00:38:44.523Z,30.13
2022-12-11T00:41:12.098Z,29.88
2022-12-11T00:43:38.889Z,30.42
2022-12-11T00:46:05.810Z,30.10
2022-12-11T00:48:32.538Z,29.55
2022-12-11T00:50:59.639Z,29.65
2022-12-11T00:53:28.332Z,31.17
2022-12-11T00:55:55.098Z,28.52
2022-12-11T00:58:22.602Z,31.15
2022-12-11T01:00:50.703Z,31.25
2022-12-11T01:03:18.067Z,29.60
2022-12-11T01:05:54.790Z,31.48
2022-12-11T01:08:21.995Z,30.50
2022-12-11T01:10:49.398Z,30.55
2022-12-11T01:13:16.077Z,30.52
2022-12-11T01:15:45.440Z,29.67
2022-12-11T01:18:13.734Z,31.42
2022-12-11T01:20:42.584Z,28.15
2022-12-11T01:23:12.465Z,29.17
2022-12-11T01:25:39.121Z,29.92
2022-12-11T01:28:06.791Z,28.85
2022-12-11T01:30:34.260Z,27.58
2022-12-11T01:33:04.240Z,29.95
2022-12-11T01:35:30.851Z,31.58
2022-12-11T01:37:57.403Z,29.60
2022-12-11T01:40:23.987Z,31.50
2022-12-11T01:42:50.556Z,31.02
2022-12-11T01:45:28.975Z,35.72
2022-12-11T01:48:10.893Z,39.75
2022-12-11T01:51:04.956Z,39.67
2022-12-11T01:53:36.994Z,42.47
2022-12-11T01:56:04.650Z,42.20
2022-12-11T01:58:35.274Z,40.05
2022-12-11T02:01:02.895Z,41.28
2022-12-11T02:03:29.509Z,39.58
2022-12-11T02:06:00.642Z,38.63
2022-12-11T02:08:27.277Z,37.17
2022-12-11T02:11:20.929Z,37.80
2022-12-11T02:13:59.954Z,38.90
2022-12-11T02:16:33.598Z,36.10
2022-12-11T02:19:02.886Z,38.42
2022-12-11T02:21:39.526Z,37.28
2022-12-11T02:24:30.977Z,36.67
2022-12-11T02:27:09.698Z,36.90
2022-12-11T02:29:44.003Z,35.67
2022-12-11T02:32:22.490Z,36.65
2022-12-11T02:35:00.232Z,38.65
2022-12-11T02:37:32.678Z,39.03
2022-12-11T02:39:59.438Z,38.17
2022-12-11T02:42:30.640Z,36.00
2022-12-11T02:45:00.081Z,35.85
2022-12-11T02:47:29.403Z,38.67
2022-12-11T02:49:59.664Z,36.00
2022-12-11T02:52:28.958Z,36.65
2022-12-11T02:54:58.434Z,39.35
2022-12-11T02:57:35.887Z,35.40
2022-12-11T03:00:02.584Z,34.72
2022-12-11T03:02:29.311Z,37.15
2022-12-11T03:04:57.671Z,38.45
2022-12-11T03:07:32.757Z,37.38
2022-12-11T03:09:59.581Z,36.15
2022-12-11T03:12:31.999Z,38.40
2022-12-11T03:15:05.071Z,37.20
2022-12-11T03:17:56.119Z,35.65
2022-12-11T03:20:32.180Z,35.25
2022-12-11T03:23:30.578Z,36.33
2022-12-11T03:26:01.250Z,37.75
2022-12-11T03:28:38.891Z,36.33
2022-12-11T03:31:09.948Z,36.60
2022-12-11T03:33:40.580Z,38.10
2022-12-11T03:36:14.715Z,35.20
2022-12-11T03:38:51.774Z,37.90
2022-12-11T03:41:22.113Z,36.45
2022-12-11T03:43:54.930Z,34.20
2022-12-11T03:46:24.694Z,35.83
2022-12-11T03:49:01.952Z,35.78
2022-12-11T03:51:31.436Z,35.88
2022-12-11T03:53:58.539Z,35.58
2022-12-11T03:56:28.569Z,33.83
2022-12-11T03:58:55.305Z,34.40
2022-12-11T04:01:22.003Z,35.50
2022-12-11T04:03:48.563Z,36.42
2022-12-11T04:06:15.186Z,35.40
2022-12-11T04:08:41.785Z,37.13
2022-12-11T04:11:26.947Z,33.75
2022-12-11T04:14:11.674Z,35.25
2022-12-11T04:16:38.531Z,34.28
2022-12-11T04:19:24.763Z,32.47
2022-12-11T04:22:10.041Z,34.00
2022-12-11T04:24:36.570Z,31.58
2022-12-11T04:27:03.317Z,33.55
2022-12-11T04:29:29.848Z,30.38
2022-12-11T04:31:56.977Z,31.40
2022-12-11T04:34:23.790Z,31.30
2022-12-11T04:36:50.681Z,31.05
2022-12-11T04:39:17.746Z,27.65
2022-12-11T04:41:44.516Z,28.40
2022-12-11T04:44:11.317Z,29.40
2022-12-11T04:46:38.041Z,27.60
2022-12-11T04:49:04.767Z,27.48
2022-12-11T04:51:31.295Z,28.48
2022-12-11T04:53:59.380Z,28.33
2022-12-11T04:56:26.047Z,24.77
2022-12-11T04:58:52.626Z,25.48
2022-12-11T05:01:22.792Z,25.70
2022-12-11T05:03:50.220Z,25.52
2022-12-11T05:06:16.818Z,24.60
2022-12-11T05:08:45.223Z,24.85
2022-12-11T05:11:15.018Z,26.17
2022-12-11T05:13:42.454Z,25.73
2022-12-11T05:16:11.468Z,23.90
2022-12-11T05:18:38.455Z,22.60
2022-12-11T05:21:07.902Z,23.67
2022-12-11T05:26:05.013Z,22.38
2022-12-11T05:28:34.856Z,25.50
2022-12-11T05:31:04.714Z,25.70
2022-12-11T05:33:31.945Z,26.52
2022-12-11T05:35:58.606Z,25.77
2022-12-11T05:38:25.457Z,26.80
2022-12-11T05:41:13.616Z,25.88
2022-12-11T05:43:40.174Z,27.75
2022-12-11T05:46:13.957Z,27.08
2022-12-11T05:48:41.908Z,27.25
2022-12-11T05:51:09.240Z,25.40
2022-12-11T05:53:37.361Z,27.02
2022-12-11T05:56:10.795Z,26.88
2022-12-11T05:58:37.761Z,27.00
2022-12-11T06:01:08.899Z,26.27
2022-12-11T06:03:35.536Z,27.35
2022-12-11T06:06:03.109Z,28.45
2022-12-11T06:08:30.777Z,26.98
2022-12-11T06:10:58.258Z,26.88
2022-12-11T06:13:24.963Z,27.25
2022-12-11T06:15:51.819Z,29.00
2022-12-11T06:18:18.399Z,29.35
2022-12-11T06:20:45.155Z,28.23
2022-12-11T06:23:11.712Z,26.40
2022-12-11T06:25:39.498Z,29.00
2022-12-11T06:28:06.457Z,31.25
2022-12-11T06:30:38.652Z,28.33
2022-12-11T06:33:06.139Z,30.27
2022-12-11T06:35:35.145Z,30.58
2022-12-11T06:38:07.620Z,27.83
2022-12-11T06:40:34.119Z,30.88
2022-12-11T06:43:00.644Z,29.70
2022-12-11T06:45:27.300Z,29.50
2022-12-11T06:47:53.887Z,29.88
2022-12-11T06:50:20.500Z,29.60
2022-12-11T06:52:46.988Z,30.33
2022-12-11T06:55:13.834Z,30.27
2022-12-11T06:57:40.689Z,29.67
2022-12-11T07:00:08.130Z,30.30
2022-12-11T07:02:34.789Z,28.45
2022-12-11T07:05:01.524Z,25.50
2022-12-11T07:07:30.210Z,21.60
2022-12-11T07:09:56.818Z,25.83
2022-12-11T07:12:23.464Z,23.55
2022-12-11T07:14:50.036Z,17.67
2022-12-11T07:17:16.568Z,19.75
2022-12-11T07:19:43.157Z,17.67
2022-12-11T07:22:09.649Z,19.40
2022-12-11T07:24:36.231Z,20.88
2022-12-11T07:27:02.872Z,20.25
2022-12-11T07:29:29.393Z,20.35
2022-12-11T07:31:56.060Z,21.25
2022-12-11T07:34:22.788Z,19.13
2022-12-11T07:36:49.319Z,20.25
2022-12-11T07:39:16.183Z,18.25
2022-12-11T07:41:43.126Z,17.23
2022-12-11T07:44:12.796Z,14.30
2022-12-11T07:46:39.892Z,13.82
2022-12-11T07:49:07.156Z,13.57
2022-12-11T07:51:38.196Z,15.55
2022-12-11T07:54:07.721Z,12.13
2022-12-11T07:56:35.239Z,12.00
2022-12-11T07:59:04.344Z,10.95
2022-12-11T08:01:33.438Z,10.18
2022-12-11T08:04:00.495Z,9.13
2022-12-11T08:06:29.839Z,8.75
2022-12-11T08:08:58.010Z,8.13
2022-12-11T08:11:25.416Z,9.48
2022-12-11T08:13:52.285Z,8.52
2022-12-11T08:16:19.394Z,9.57
2022-12-11T08:18:49.148Z,10.40
2022-12-11T08:21:23.918Z,11.20
2022-12-11T08:23:52.417Z,12.35
2022-12-11T08:26:24.242Z,9.70
2022-12-11T08:28:51.445Z,12.80
2022-12-11T08:31:18.831Z,12.77
2022-12-11T08:33:46.481Z,13.07
2022-12-11T08:36:19.145Z,14.13
2022-12-11T08:38:46.836Z,13.32
2022-12-11T08:41:18.966Z,11.75
2022-12-11T08:43:46.627Z,14.75
2022-12-11T08:46:13.604Z,14.52
2022-12-11T08:48:42.692Z,14.15
2022-12-11T08:51:13.400Z,15.68
2022-12-11T08:53:40.072Z,16.52
2022-12-11T08:56:12.009Z,16.08
2022-12-11T08:58:38.985Z,13.52
2022-12-11T09:01:10.719Z,14.90
2022-12-11T09:03:38.447Z,16.50
2022-12-11T09:06:06.956Z,17.25
2022-12-11T09:08:34.093Z,17.45
2022-12-11T09:11:11.852Z,17.73
2022-12-11T09:13:39.221Z,19.33
2022-12-11T09:16:09.491Z,19.45
2022-12-11T09:18:37.741Z,20.27
2022-12-11T09:21:11.497Z,19.70
2022-12-11T09:23:38.063Z,17.98
2022-12-11T09:26:11.115Z,17.77
2022-12-11T09:28:44.327Z,20.05
2022-12-11T09:31:19.205Z,17.20
2022-12-11T09:33:46.389Z,19.00
2022-12-11T09:36:13.100Z,19.35
2022-12-11T09:38:39.848Z,18.10
2022-12-11T09:41:37.422Z,17.70
2022-12-11T09:44:13.405Z,17.23
2022-12-11T09:46:40.970Z,18.67
2022-12-11T09:49:22.197Z,20.35
2022-12-11T09:52:09.074Z,22.35
2022-12-11T09:54:35.942Z,20.65
2022-12-11T09:57:14.460Z,21.92
2022-12-11T09:59:57.344Z,19.65
2022-12-11T10:03:03.269Z,20.10
2022-12-11T10:05:48.766Z,23.40
2022-12-11T10:08:32.044Z,22.63
2022-12-11T10:11:48.285Z,20.40
2022-12-11T10:14:58.350Z,20.88
2022-12-11T10:17:30.912Z,20.48
2022-12-11T10:20:05.526Z,22.35
2022-12-11T10:22:33.708Z,21.98
2022-12-11T10:25:12.899Z,20.20
2022-12-11T10:27:41.044Z,20.92
2022-12-11T10:30:07.663Z,19.95
2022-12-11T10:33:00.193Z,21.63
2022-12-11T10:35:33.407Z,20.58
2022-12-11T10:38:13.772Z,19.83
2022-12-11T10:40:45.561Z,21.35
2022-12-11T10:43:12.525Z,19.38
2022-12-11T10:45:39.558Z,20.30
2022-12-11T10:48:10.743Z,18.60
2022-12-11T10:50:38.707Z,18.85
2022-12-11T10:53:05.973Z,18.95
2022-12-11T10:55:45.384Z,19.00
2022-12-11T10:58:24.207Z,18.15
2022-12-11T11:01:05.751Z,15.52
2022-12-11T11:04:14.550Z,17.13
2022-12-11T11:06:44.436Z,20.95
2022-12-11T11:09:29.847Z,18.40
2022-12-11T11:11:56.542Z,18.05
2022-12-11T11:14:23.551Z,18.60
2022-12-11T11:16:52.801Z,21.00
2022-12-11T11:19:26.846Z,21.27
2022-12-11T11:21:57.561Z,20.88
2022-12-11T11:24:40.042Z,20.50
2022-12-11T11:28:02.454Z,22.35
2022-12-11T11:30:33.804Z,23.10
2022-12-11T11:33:05.713Z,22.80
2022-12-11T11:35:33.028Z,18.63
2022-12-11T11:38:12.670Z,18.73
2022-12-11T11:41:07.618Z,16.58
2022-12-11T11:43:48.910Z,18.65
2022-12-11T11:46:18.462Z,19.38
2022-12-11T11:51:23.045Z,18.85
2022-12-11T11:53:51.626Z,19.33
2022-12-11T11:56:54.134Z,20.80
2022-12-11T11:59:27.708Z,17.92
2022-12-11T12:01:56.817Z,19.25
2022-12-11T12:04:53.260Z,16.15
2022-12-11T12:08:15.237Z,20.40
2022-12-11T12:10:50.772Z,19.38
2022-12-11T12:14:29.062Z,22.55
2022-12-11T12:17:09.528Z,19.38
2022-12-11T12:19:48.484Z,14.88
2022-12-11T12:22:46.206Z,17.45
2022-12-11T12:25:26.760Z,20.67
2022-12-11T12:27:53.517Z,23.23
2022-12-11T12:30:23.347Z,61.22
2022-12-11T12:33:25.310Z,32.67
2022-12-11T12:36:27.875Z,18.30
2022-12-11T12:39:15.947Z,17.88
2022-12-11T12:41:55.226Z,18.50
2022-12-11T12:44:23.971Z,18.40
2022-12-11T12:47:00.289Z,21.48
2022-12-11T12:49:40.945Z,21.88
2022-12-11T12:52:33.916Z,22.30
2022-12-11T12:55:14.599Z,22.83
2022-12-11T12:58:05.157Z,21.02
2022-12-11T13:00:43.718Z,23.00
2022-12-11T13:03:20.352Z,17.73
2022-12-11T13:06:06.201Z,19.13
2022-12-11T13:08:47.105Z,18.58
2022-12-11T13:11:16.338Z,23.05
2022-12-11T13:13:51.608Z,19.23
2022-12-11T13:16:25.090Z,21.35
2022-12-11T13:18:52.480Z,21.25
2022-12-11T13:21:36.004Z,21.63
2022-12-11T13:24:25.676Z,26.00
2022-12-11T13:29:37.641Z,19.60
2022-12-11T13:32:10.591Z,19.60
2022-12-11T13:34:41.509Z,19.08
2022-12-11T13:37:31.799Z,19.65
2022-12-11T13:39:59.891Z,19.88
2022-12-11T13:42:42.621Z,20.23
2022-12-11T13:45:19.423Z,20.63
2022-12-11T13:47:47.713Z,19.13
2022-12-11T13:50:22.403Z,19.60
2022-12-11T13:53:00.367Z,20.60
2022-12-11T13:55:33.487Z,21.15
2022-12-11T13:58:00.502Z,21.90
2022-12-11T14:00:32.679Z,22.77
2022-12-11T14:03:05.135Z,21.55
2022-12-11T14:05:32.004Z,21.52
2022-12-11T14:08:09.252Z,21.65
2022-12-11T14:10:37.051Z,20.17
2022-12-11T14:13:17.582Z,22.13
2022-12-11T14:15:45.538Z,23.27
2022-12-11T14:18:20.190Z,23.20
2022-12-11T14:20:55.333Z,28.13
2022-12-11T14:23:25.260Z,22.45
2022-12-11T14:26:00.693Z,21.05
2022-12-11T14:28:36.811Z,21.98
2022-12-11T14:31:06.406Z,25.13
2022-12-11T14:33:38.258Z,23.17
2022-12-11T14:36:06.556Z,23.80
2022-12-11T14:38:37.813Z,22.40
2022-12-11T14:41:17.033Z,23.35
2022-12-11T14:43:48.323Z,20.95
2022-12-11T14:46:19.129Z,20.90
2022-12-11T14:49:00.553Z,27.17
2022-12-11T14:51:34.263Z,24.88
2022-12-11T14:54:03.503Z,23.63
2022-12-11T14:56:30.800Z,23.05
2022-12-11T14:59:08.779Z,21.63
2022-12-11T15:01:37.737Z,21.17
2022-12-11T15:04:06.200Z,21.45
2022-12-11T15:06:36.269Z,23.00
2022-12-11T15:09:19.043Z,22.13
2022-12-11T15:11:48.337Z,22.23
2022-12-11T15:14:18.016Z,22.67
2022-12-11T15:19:32.527Z,22.60
2022-12-11T15:22:08.547Z,20.88
2022-12-11T15:24:41.757Z,21.48
2022-12-11T15:27:36.671Z,22.08
2022-12-11T15:30:18.833Z,22.27
2022-12-11T15:32:46.077Z,22.02
2022-12-11T15:35:25.891Z,21.42
2022-12-11T15:37:54.527Z,23.85
2022-12-11T15:40:21.224Z,24.23
2022-12-11T15:42:50.317Z,25.70
2022-12-11T15:45:20.241Z,25.63
2022-12-11T15:47:48.619Z,25.58
2022-12-11T15:50:16.828Z,26.10
2022-12-11T15:52:43.980Z,26.52
2022-12-11T15:55:11.256Z,27.10
2022-12-11T15:57:38.240Z,28.38
2022-12-11T16:00:08.041Z,26.27
2022-12-11T16:02:34.678Z,28.90
2022-12-11T16:05:01.220Z,26.80
2022-12-11T16:07:27.794Z,27.60
2022-12-11T16:09:54.409Z,27.67
2022-12-11T16:12:21.114Z,28.50
2022-12-11T16:14:47.909Z,29.10
2022-12-11T16:17:15.511Z,26.75
2022-12-11T16:19:47.161Z,29.67
2022-12-11T16:22:14.865Z,26.80
2022-12-11T16:24:41.781Z,27.90
2022-12-11T16:27:09.818Z,27.67
2022-12-11T16:30:01.995Z,28.00
2022-12-11T16:32:28.551Z,27.55
2022-12-11T16:34:59.863Z,25.85
2022-12-11T16:37:26.433Z,26.17
2022-12-11T16:39:53.011Z,27.13
2022-12-11T16:42:21.066Z,28.08
2022-12-11T16:44:48.516Z,27.92
2022-12-11T16:47:15.132Z,27.42
2022-12-11T16:49:43.202Z,28.83
2022-12-11T16:52:09.797Z,28.30
2022-12-11T16:54:36.389Z,31.38
2022-12-11T16:57:03.041Z,29.65
2022-12-11T16:59:35.146Z,29.23
2022-12-11T17:02:03.884Z,32.17
2022-12-11T17:04:30.467Z,28.77
2022-12-11T17:06:57.079Z,32.30
2022-12-11T17:09:23.811Z,30.13
2022-12-11T17:11:50.505Z,29.05
2022-12-11T17:14:17.060Z,30.02
2022-12-11T17:16:44.390Z,31.30
2022-12-11T17:19:11.073Z,32.10
2022-12-11T17:21:37.703Z,32.90
2022-12-11T17:24:04.559Z,31.55
2022-12-11T17:26:31.525Z,30.27
2022-12-11T17:28:58.249Z,31.42
2022-12-11T17:31:25.111Z,28.40
2022-12-11T17:33:53.864Z,32.10
2022-12-11T17:36:21.997Z,30.50
2022-12-11T17:38:49.727Z,30.55
2022-12-11T17:41:20.544Z,30.20
2022-12-11T17:43:49.630Z,30.55
2022-12-11T17:46:17.059Z,31.20
2022-12-11T17:48:43.962Z,30.17
2022-12-11T17:51:13.994Z,32.50
2022-12-11T17:53:40.575Z,31.80
2022-12-11T17:56:17.256Z,31.17
2022-12-11T17:59:08.284Z,31.98
2022-12-11T18:01:37.145Z,31.75
2022-12-11T18:04:04.897Z,32.05
2022-12-11T18:06:32.738Z,30.80
2022-12-11T18:08:59.453Z,33.65
2022-12-11T18:11:32.099Z,33.13
2022-12-11T18:14:01.659Z,31.60
2022-12-11T18:16:34.321Z,32.00
2022-12-11T18:19:01.331Z,32.97
2022-12-11T18:21:32.343Z,31.92
2022-12-11T18:24:00.088Z,34.30
2022-12-11T18:26:28.036Z,33.05
2022-12-11T18:28:55.025Z,34.10
2022-12-11T18:31:22.978Z,33.08
2022-12-11T18:33:50.803Z,34.08
2022-12-11T18:36:18.941Z,33.17
2022-12-11T18:38:47.004Z,32.05
2022-12-11T18:41:16.128Z,34.22
2022-12-11T18:43:43.108Z,34.42
2022-12-11T18:46:14.980Z,31.80
2022-12-11T18:48:43.227Z,33.25
2022-12-11T18:51:17.060Z,33.72
2022-12-11T18:53:43.834Z,32.80
2022-12-11T18:56:13.909Z,33.70
2022-12-11T18:58:40.983Z,32.70
2022-12-11T19:01:16.084Z,32.08
2022-12-11T19:03:44.200Z,34.55
2022-12-11T19:06:13.994Z,32.85
2022-12-11T19:08:41.188Z,31.20
2022-12-11T19:11:07.980Z,32.05
2022-12-11T19:13:35.138Z,30.83
2022-12-11T19:16:02.282Z,30.83
2022-12-11T19:18:28.988Z,32.22
2022-12-11T19:21:06.793Z,31.42
2022-12-11T19:26:02.479Z,29.83
2022-12-11T19:28:31.138Z,28.33
2022-12-11T19:30:57.886Z,30.70
2022-12-11T19:33:24.624Z,30.13
2022-12-11T19:36:00.929Z,30.20
2022-12-11T19:38:27.500Z,30.80
2022-12-11T19:40:59.772Z,31.40
2022-12-11T19:43:30.048Z,29.42
2022-12-11T19:46:02.617Z,32.28
2022-12-11T19:48:30.532Z,31.05
2022-12-11T19:50:57.332Z,30.77
2022-12-11T19:53:23.948Z,29.30
2022-12-11T19:55:52.193Z,28.67
2022-12-11T19:58:20.110Z,28.77
2022-12-11T20:00:46.717Z,29.10
2022-12-11T20:03:13.509Z,28.63
2022-12-11T20:05:40.364Z,27.67
2022-12-11T20:08:35.668Z,29.00
2022-12-11T20:10:54.290Z,29.63
2022-12-11T20:13:21.800Z,29.95
2022-12-11T20:15:48.988Z,29.23
2022-12-11T20:18:18.748Z,30.10
2022-12-11T20:20:45.591Z,26.88
2022-12-11T20:23:12.160Z,29.73
2022-12-11T20:25:41.777Z,30.52
2022-12-11T20:30:35.536Z,29.27
2022-12-11T20:33:02.162Z,31.40
2022-12-11T20:35:28.924Z,31.52
2022-12-11T20:37:55.732Z,28.90
2022-12-11T20:40:22.320Z,30.58
2022-12-11T20:42:49.625Z,31.45
2022-12-11T20:45:16.462Z,29.80
2022-12-11T20:47:43.162Z,34.63
2022-12-11T20:50:11.141Z,33.55
2022-12-11T20:52:38.599Z,31.97
2022-12-11T20:55:08.086Z,32.05
2022-12-11T20:57:40.544Z,29.88
2022-12-11T21:00:11.820Z,30.85
2022-12-11T21:02:38.434Z,30.60
2022-12-11T21:05:05.309Z,28.00
2022-12-11T21:07:31.982Z,28.58
2022-12-11T21:09:58.680Z,29.67
2022-12-11T21:12:31.230Z,29.52
2022-12-11T21:14:58.473Z,30.92
2022-12-11T21:17:25.293Z,33.45
2022-12-11T21:19:52.455Z,31.23
2022-12-11T21:22:19.146Z,31.33
2022-12-11T21:24:45.817Z,33.75
2022-12-11T21:27:12.628Z,36.30
2022-12-11T21:29:41.594Z,36.67
2022-12-11T21:32:08.407Z,34.33
2022-12-11T21:34:35.201Z,32.08
2022-12-11T21:37:03.067Z,31.83
2022-12-11T21:39:30.870Z,29.48
2022-12-11T21:42:01.214Z,30.48
2022-12-11T21:49:43.932Z,29.00
2022-12-11T21:52:11.037Z,29.20
2022-12-11T21:54:37.782Z,32.83
2022-12-11T21:57:04.946Z,31.52
2022-12-11T21:59:31.646Z,30.90
2022-12-11T22:01:58.413Z,32.63
2022-12-11T22:04:24.938Z,30.95
2022-12-11T22:06:51.807Z,31.52
2022-12-11T22:09:18.469Z,30.27
2022-12-11T22:11:46.581Z,29.95
2022-12-11T22:14:14.990Z,31.33
2022-12-11T22:16:42.703Z,31.02
2022-12-11T22:19:10.839Z,30.50
2022-12-11T22:21:37.955Z,29.55
2022-12-11T22:24:04.903Z,30.35
2022-12-11T22:26:33.845Z,32.00
2022-12-11T22:29:01.990Z,29.88
2022-12-11T22:31:28.957Z,31.23
2022-12-11T22:33:56.208Z,30.23
2022-12-11T22:36:25.275Z,31.77
2022-12-11T22:38:52.437Z,28.70
2022-12-11T22:41:27.132Z,30.73
2022-12-11T22:43:54.948Z,31.58
2022-12-11T22:46:24.175Z,30.67
2022-12-11T22:48:51.101Z,32.22
2022-12-11T22:51:18.145Z,31.50
2022-12-11T22:53:44.770Z,30.38
2022-12-11T22:56:13.703Z,30.02
2022-12-11T22:58:40.776Z,30.40
2022-12-11T23:01:13.457Z,31.13
2022-12-11T23:03:40.503Z,31.77
2022-12-11T23:06:09.246Z,31.80
2022-12-11T23:08:36.250Z,30.55
2022-12-11T23:11:09.764Z,31.25
2022-12-11T23:13:36.312Z,30.63
2022-12-11T23:16:02.984Z,29.85
2022-12-11T23:18:29.612Z,29.83
2022-12-11T23:20:56.154Z,30.52
2022-12-11T23:23:22.699Z,33.20
2022-12-11T23:25:49.222Z,31.90
2022-12-11T23:28:15.822Z,30.30
2022-12-11T23:30:42.524Z,29.33
2022-12-11T23:33:09.771Z,30.90
2022-12-11T23:35:36.358Z,31.02
2022-12-11T23:38:02.988Z,31.98
2022-12-11T23:40:30.396Z,32.20
2022-12-11T23:42:57.564Z,29.13
2022-12-11T23:45:24.381Z,31.23
2022-12-11T23:47:51.181Z,28.27
2022-12-11T23:50:18.105Z,29.25
2022-12-11T23:52:44.697Z,29.67
2022-12-11T23:55:11.871Z,29.58
2022-12-11T23:57:38.649Z,30.10
